sensor_id;sensor_type;location;lat;lon;timestamp;temperature;humidity
34147;DHT22;20423;49.448;9.056;2023-01-05T00:01:48;7.60;99.90
34147;DHT22;20423;49.448;9.056;2023-01-05T00:04:14;7.60;99.90
34147;DHT22;20423;49.448;9.056;2023-01-05T00:06:40;7.60;99.90
34147;DHT22;20423;49.448;9.056;2023-01-05T00:09:17;7.60;99.90
34147;DHT22;20423;49.448;9.056;2023-01-05T00:11:43;7.60;99.90
34147;DHT22;20423;49.448;9.056;2023-01-05T00:14:33;7.70;99.90
34147;DHT22;20423;49.448;9.056;2023-01-05T00:17:20;7.70;99.90
34147;DHT22;20423;49.448;9.056;2023-01-05T00:24:11;7.70;99.90
34147;DHT22;20423;49.448;9.056;2023-01-05T00:26:36;7.70;99.90
34147;DHT22;20423;49.448;9.056;2023-01-05T00:29:02;7.70;99.90
34147;DHT22;20423;49.448;9.056;2023-01-05T00:31:28;7.70;99.90
34147;DHT22;20423;49.448;9.056;2023-01-05T00:33:53;7.70;99.90
34147;DHT22;20423;49.448;9.056;2023-01-05T00:36:19;7.70;99.90
34147;DHT22;20423;49.448;9.056;2023-01-05T00:38:44;7.70;99.90
34147;DHT22;20423;49.448;9.056;2023-01-05T00:44:58;7.70;99.90
34147;DHT22;20423;49.448;9.056;2023-01-05T00:50:39;7.70;99.90
34147;DHT22;20423;49.448;9.056;2023-01-05T00:53:05;7.70;99.90
34147;DHT22;20423;49.448;9.056;2023-01-05T00:55:31;7.70;99.90
34147;DHT22;20423;49.448;9.056;2023-01-05T00:57:56;7.70;99.90
34147;DHT22;20423;49.448;9.056;2023-01-05T01:00:22;7.80;99.90
34147;DHT22;20423;49.448;9.056;2023-01-05T01:02:50;7.80;99.90
34147;DHT22;20423;49.448;9.056;2023-01-05T01:05:17;7.80;99.90
34147;DHT22;20423;49.448;9.056;2023-01-05T01:07:43;7.80;99.90
34147;DHT22;20423;49.448;9.056;2023-01-05T01:10:09;7.80;99.90
34147;DHT22;20423;49.448;9.056;2023-01-05T01:13:00;7.80;99.90
34147;DHT22;20423;49.448;9.056;2023-01-05T01:15:26;7.80;99.90
34147;DHT22;20423;49.448;9.056;2023-01-05T01:17:51;7.80;99.90
34147;DHT22;20423;49.448;9.056;2023-01-05T01:20:18;7.80;99.90
34147;DHT22;20423;49.448;9.056;2023-01-05T01:22:44;7.80;99.90
34147;DHT22;20423;49.448;9.056;2023-01-05T01:25:10;7.90;99.90
34147;DHT22;20423;49.448;9.056;2023-01-05T01:27:35;7.90;99.90
34147;DHT22;20423;49.448;9.056;2023-01-05T01:30:01;7.90;99.90
34147;DHT22;20423;49.448;9.056;2023-01-05T01:32:27;7.90;99.90
34147;DHT22;20423;49.448;9.056;2023-01-05T01:34:53;7.90;99.90
34147;DHT22;20423;49.448;9.056;2023-01-05T01:37:20;7.90;99.90
34147;DHT22;20423;49.448;9.056;2023-01-05T01:39:49;7.90;99.90
34147;DHT22;20423;49.448;9.056;2023-01-05T01:42:16;7.90;99.90
34147;DHT22;20423;49.448;9.056;2023-01-05T01:47:17;7.90;99.90
34147;DHT22;20423;49.448;9.056;2023-01-05T01:49:44;7.90;99.90
34147;DHT22;20423;49.448;9.056;2023-01-05T01:52:10;7.90;99.90
34147;DHT22;20423;49.448;9.056;2023-01-05T01:54:36;7.90;99.90
34147;DHT22;20423;49.448;9.056;2023-01-05T01:57:04;7.90;99.90
34147;DHT22;20423;49.448;9.056;2023-01-05T01:59:30;7.90;99.90
34147;DHT22;20423;49.448;9.056;2023-01-05T02:01:59;7.90;99.90
34147;DHT22;20423;49.448;9.056;2023-01-05T02:04:26;7.90;99.90
34147;DHT22;20423;49.448;9.056;2023-01-05T02:06:54;7.90;99.90
34147;DHT22;20423;49.448;9.056;2023-01-05T02:09:20;7.90;99.90
34147;DHT22;20423;49.448;9.056;2023-01-05T02:11:53;7.90;99.90
34147;DHT22;20423;49.448;9.056;2023-01-05T02:14:52;8.00;99.90
34147;DHT22;20423;49.448;9.056;2023-01-05T02:17:36;8.00;99.90
34147;DHT22;20423;49.448;9.056;2023-01-05T02:31:29;8.00;99.90
34147;DHT22;20423;49.448;9.056;2023-01-05T02:34:22;8.00;99.90
34147;DHT22;20423;49.448;9.056;2023-01-05T02:37:10;8.00;99.90
34147;DHT22;20423;49.448;9.056;2023-01-05T02:40:02;8.00;99.90
34147;DHT22;20423;49.448;9.056;2023-01-05T02:42:35;8.00;99.90
34147;DHT22;20423;49.448;9.056;2023-01-05T02:45:05;8.00;99.90
34147;DHT22;20423;49.448;9.056;2023-01-05T02:50:11;8.10;99.90
34147;DHT22;20423;49.448;9.056;2023-01-05T02:53:05;8.10;99.90
34147;DHT22;20423;49.448;9.056;2023-01-05T02:55:43;8.10;99.90
34147;DHT22;20423;49.448;9.056;2023-01-05T02:58:38;8.10;99.90
34147;DHT22;20423;49.448;9.056;2023-01-05T03:01:15;8.10;99.90
34147;DHT22;20423;49.448;9.056;2023-01-05T03:03:50;8.10;99.90
34147;DHT22;20423;49.448;9.056;2023-01-05T03:06:31;8.10;99.90
34147;DHT22;20423;49.448;9.056;2023-01-05T03:09:00;8.10;99.90
34147;DHT22;20423;49.448;9.056;2023-01-05T03:12:07;8.10;99.90
34147;DHT22;20423;49.448;9.056;2023-01-05T03:14:58;8.10;99.90
34147;DHT22;20423;49.448;9.056;2023-01-05T03:17:43;8.10;99.90
34147;DHT22;20423;49.448;9.056;2023-01-05T03:20:15;8.10;99.90
34147;DHT22;20423;49.448;9.056;2023-01-05T03:22:44;8.10;99.90
34147;DHT22;20423;49.448;9.056;2023-01-05T03:25:29;8.20;99.90
34147;DHT22;20423;49.448;9.056;2023-01-05T03:28:19;8.20;99.90
34147;DHT22;20423;49.448;9.056;2023-01-05T03:37:12;8.20;99.90
34147;DHT22;20423;49.448;9.056;2023-01-05T03:39:41;8.30;99.90
34147;DHT22;20423;49.448;9.056;2023-01-05T03:42:09;8.30;99.90
34147;DHT22;20423;49.448;9.056;2023-01-05T03:44:37;8.30;99.90
34147;DHT22;20423;49.448;9.056;2023-01-05T03:47:04;8.20;99.90
34147;DHT22;20423;49.448;9.056;2023-01-05T03:49:30;8.20;99.90
34147;DHT22;20423;49.448;9.056;2023-01-05T03:51:57;8.20;99.90
34147;DHT22;20423;49.448;9.056;2023-01-05T03:54:23;8.30;99.90
34147;DHT22;20423;49.448;9.056;2023-01-05T03:56:50;8.30;99.90
34147;DHT22;20423;49.448;9.056;2023-01-05T03:59:16;8.30;99.90
34147;DHT22;20423;49.448;9.056;2023-01-05T04:01:42;8.30;99.90
34147;DHT22;20423;49.448;9.056;2023-01-05T04:04:12;8.30;99.90
34147;DHT22;20423;49.448;9.056;2023-01-05T04:06:38;8.30;99.90
34147;DHT22;20423;49.448;9.056;2023-01-05T04:09:04;8.30;99.90
34147;DHT22;20423;49.448;9.056;2023-01-05T04:11:33;8.30;99.90
34147;DHT22;20423;49.448;9.056;2023-01-05T04:14:03;8.20;99.90
34147;DHT22;20423;49.448;9.056;2023-01-05T04:16:33;8.20;99.90
34147;DHT22;20423;49.448;9.056;2023-01-05T04:19:04;8.10;99.90
34147;DHT22;20423;49.448;9.056;2023-01-05T04:21:30;8.20;99.90
34147;DHT22;20423;49.448;9.056;2023-01-05T04:23:56;8.20;99.90
34147;DHT22;20423;49.448;9.056;2023-01-05T04:26:23;8.10;99.90
34147;DHT22;20423;49.448;9.056;2023-01-05T04:28:50;8.10;99.90
34147;DHT22;20423;49.448;9.056;2023-01-05T04:31:18;8.10;99.90
34147;DHT22;20423;49.448;9.056;2023-01-05T04:33:44;8.10;99.90
34147;DHT22;20423;49.448;9.056;2023-01-05T04:36:14;8.10;99.90
34147;DHT22;20423;49.448;9.056;2023-01-05T04:38:40;8.20;99.90
34147;DHT22;20423;49.448;9.056;2023-01-05T04:41:06;8.20;99.90
34147;DHT22;20423;49.448;9.056;2023-01-05T04:43:33;8.20;99.90
34147;DHT22;20423;49.448;9.056;2023-01-05T04:46:00;8.10;99.90
34147;DHT22;20423;49.448;9.056;2023-01-05T04:48:27;8.10;99.90
34147;DHT22;20423;49.448;9.056;2023-01-05T04:50:54;8.10;99.90
34147;DHT22;20423;49.448;9.056;2023-01-05T04:53:26;8.10;99.90
34147;DHT22;20423;49.448;9.056;2023-01-05T04:55:52;8.10;99.90
34147;DHT22;20423;49.448;9.056;2023-01-05T04:58:20;8.10;99.90
34147;DHT22;20423;49.448;9.056;2023-01-05T05:00:48;8.10;99.90
34147;DHT22;20423;49.448;9.056;2023-01-05T05:03:15;8.10;99.90
34147;DHT22;20423;49.448;9.056;2023-01-05T05:05:48;8.00;99.90
34147;DHT22;20423;49.448;9.056;2023-01-05T05:08:14;8.00;99.90
34147;DHT22;20423;49.448;9.056;2023-01-05T05:10:40;7.90;99.90
34147;DHT22;20423;49.448;9.056;2023-01-05T05:13:07;7.90;99.90
34147;DHT22;20423;49.448;9.056;2023-01-05T05:15:33;7.90;99.90
34147;DHT22;20423;49.448;9.056;2023-01-05T05:18:01;7.90;99.90
34147;DHT22;20423;49.448;9.056;2023-01-05T05:20:27;7.90;99.90
34147;DHT22;20423;49.448;9.056;2023-01-05T05:22:52;7.80;99.90
34147;DHT22;20423;49.448;9.056;2023-01-05T05:28:33;7.70;99.90
34147;DHT22;20423;49.448;9.056;2023-01-05T05:30:59;7.50;99.90
34147;DHT22;20423;49.448;9.056;2023-01-05T05:33:25;7.50;99.90
34147;DHT22;20423;49.448;9.056;2023-01-05T05:35:51;7.50;99.90
34147;DHT22;20423;49.448;9.056;2023-01-05T05:38:17;7.50;99.90
34147;DHT22;20423;49.448;9.056;2023-01-05T05:40:43;7.50;99.90
34147;DHT22;20423;49.448;9.056;2023-01-05T05:43:08;7.60;99.90
34147;DHT22;20423;49.448;9.056;2023-01-05T05:45:34;7.50;99.90
34147;DHT22;20423;49.448;9.056;2023-01-05T05:47:59;7.60;99.90
34147;DHT22;20423;49.448;9.056;2023-01-05T05:50:26;7.50;99.90
34147;DHT22;20423;49.448;9.056;2023-01-05T05:52:52;7.50;99.90
34147;DHT22;20423;49.448;9.056;2023-01-05T05:55:17;7.50;99.90
34147;DHT22;20423;49.448;9.056;2023-01-05T05:57:43;7.40;99.90
34147;DHT22;20423;49.448;9.056;2023-01-05T06:03:28;7.40;99.90
34147;DHT22;20423;49.448;9.056;2023-01-05T06:05:53;7.40;99.90
34147;DHT22;20423;49.448;9.056;2023-01-05T06:08:41;7.40;99.90
34147;DHT22;20423;49.448;9.056;2023-01-05T06:11:06;7.40;99.90
34147;DHT22;20423;49.448;9.056;2023-01-05T06:13:32;7.40;99.90
34147;DHT22;20423;49.448;9.056;2023-01-05T06:15:58;7.40;99.90
34147;DHT22;20423;49.448;9.056;2023-01-05T06:18:24;7.40;99.90
34147;DHT22;20423;49.448;9.056;2023-01-05T06:20:49;7.40;99.90
34147;DHT22;20423;49.448;9.056;2023-01-05T06:23:15;7.40;99.90
34147;DHT22;20423;49.448;9.056;2023-01-05T06:25:41;7.40;99.90
34147;DHT22;20423;49.448;9.056;2023-01-05T06:28:07;7.40;99.90
34147;DHT22;20423;49.448;9.056;2023-01-05T06:30:33;7.40;99.90
34147;DHT22;20423;49.448;9.056;2023-01-05T06:32:58;7.40;99.90
34147;DHT22;20423;49.448;9.056;2023-01-05T06:35:24;7.50;99.90
34147;DHT22;20423;49.448;9.056;2023-01-05T06:37:50;7.50;99.90
34147;DHT22;20423;49.448;9.056;2023-01-05T06:40:15;7.50;99.90
34147;DHT22;20423;49.448;9.056;2023-01-05T06:42:42;7.50;99.90
34147;DHT22;20423;49.448;9.056;2023-01-05T06:45:11;7.50;99.90
34147;DHT22;20423;49.448;9.056;2023-01-05T06:47:37;7.50;99.90
34147;DHT22;20423;49.448;9.056;2023-01-05T06:50:03;7.50;99.90
34147;DHT22;20423;49.448;9.056;2023-01-05T06:52:28;7.50;99.90
34147;DHT22;20423;49.448;9.056;2023-01-05T06:58:32;7.40;99.90
34147;DHT22;20423;49.448;9.056;2023-01-05T07:00:58;7.40;99.90
34147;DHT22;20423;49.448;9.056;2023-01-05T07:03:24;7.40;99.90
34147;DHT22;20423;49.448;9.056;2023-01-05T07:05:50;7.30;99.90
34147;DHT22;20423;49.448;9.056;2023-01-05T07:08:16;7.40;99.90
34147;DHT22;20423;49.448;9.056;2023-01-05T07:10:42;7.40;99.90
34147;DHT22;20423;49.448;9.056;2023-01-05T07:13:08;7.40;99.90
34147;DHT22;20423;49.448;9.056;2023-01-05T07:15:33;7.40;99.90
34147;DHT22;20423;49.448;9.056;2023-01-05T07:21:47;7.40;99.90
34147;DHT22;20423;49.448;9.056;2023-01-05T07:24:13;7.40;99.90
34147;DHT22;20423;49.448;9.056;2023-01-05T07:26:38;7.40;99.90
34147;DHT22;20423;49.448;9.056;2023-01-05T07:29:04;7.40;99.90
34147;DHT22;20423;49.448;9.056;2023-01-05T07:31:30;7.40;99.90
34147;DHT22;20423;49.448;9.056;2023-01-05T07:37:43;7.40;99.90
34147;DHT22;20423;49.448;9.056;2023-01-05T07:40:09;7.40;99.90
34147;DHT22;20423;49.448;9.056;2023-01-05T07:42:35;7.40;99.90
34147;DHT22;20423;49.448;9.056;2023-01-05T07:45:02;7.40;99.90
34147;DHT22;20423;49.448;9.056;2023-01-05T07:47:27;7.40;99.90
34147;DHT22;20423;49.448;9.056;2023-01-05T07:49:53;7.40;99.90
34147;DHT22;20423;49.448;9.056;2023-01-05T07:52:19;7.40;99.90
34147;DHT22;20423;49.448;9.056;2023-01-05T07:58:39;7.50;99.90
34147;DHT22;20423;49.448;9.056;2023-01-05T08:01:08;7.50;99.90
34147;DHT22;20423;49.448;9.056;2023-01-05T08:03:34;7.50;99.90
34147;DHT22;20423;49.448;9.056;2023-01-05T08:06:04;7.40;99.90
34147;DHT22;20423;49.448;9.056;2023-01-05T08:08:30;7.50;99.90
34147;DHT22;20423;49.448;9.056;2023-01-05T08:10:56;7.60;99.90
34147;DHT22;20423;49.448;9.056;2023-01-05T08:13:22;7.50;99.90
34147;DHT22;20423;49.448;9.056;2023-01-05T08:16:06;7.50;99.90
34147;DHT22;20423;49.448;9.056;2023-01-05T08:18:32;7.50;99.90
34147;DHT22;20423;49.448;9.056;2023-01-05T08:20:59;7.60;99.90
34147;DHT22;20423;49.448;9.056;2023-01-05T08:23:29;7.60;99.90
34147;DHT22;20423;49.448;9.056;2023-01-05T08:25:56;7.60;99.90
34147;DHT22;20423;49.448;9.056;2023-01-05T08:28:23;7.70;99.90
34147;DHT22;20423;49.448;9.056;2023-01-05T08:30:49;7.70;99.90
34147;DHT22;20423;49.448;9.056;2023-01-05T08:33:15;7.70;99.90
34147;DHT22;20423;49.448;9.056;2023-01-05T08:39:28;7.80;99.90
34147;DHT22;20423;49.448;9.056;2023-01-05T08:41:53;7.80;99.90
34147;DHT22;20423;49.448;9.056;2023-01-05T08:44:19;7.80;99.90
34147;DHT22;20423;49.448;9.056;2023-01-05T08:46:45;7.80;99.90
34147;DHT22;20423;49.448;9.056;2023-01-05T08:49:11;7.90;99.90
34147;DHT22;20423;49.448;9.056;2023-01-05T08:51:37;7.80;99.90
34147;DHT22;20423;49.448;9.056;2023-01-05T08:54:03;7.80;99.90
34147;DHT22;20423;49.448;9.056;2023-01-05T08:56:28;7.80;99.90
34147;DHT22;20423;49.448;9.056;2023-01-05T08:58:54;7.90;99.90
34147;DHT22;20423;49.448;9.056;2023-01-05T09:01:20;8.00;99.90
34147;DHT22;20423;49.448;9.056;2023-01-05T09:03:47;8.00;99.90
34147;DHT22;20423;49.448;9.056;2023-01-05T09:06:13;8.10;99.90
34147;DHT22;20423;49.448;9.056;2023-01-05T09:08:40;8.10;99.90
34147;DHT22;20423;49.448;9.056;2023-01-05T09:11:16;8.10;99.90
34147;DHT22;20423;49.448;9.056;2023-01-05T09:14:01;8.10;99.90
34147;DHT22;20423;49.448;9.056;2023-01-05T09:16:31;8.10;99.90
34147;DHT22;20423;49.448;9.056;2023-01-05T09:18:58;8.20;99.90
34147;DHT22;20423;49.448;9.056;2023-01-05T09:21:24;8.20;99.90
34147;DHT22;20423;49.448;9.056;2023-01-05T09:23:49;8.30;99.90
34147;DHT22;20423;49.448;9.056;2023-01-05T09:26:16;8.40;99.90
34147;DHT22;20423;49.448;9.056;2023-01-05T09:32:29;8.50;99.90
34147;DHT22;20423;49.448;9.056;2023-01-05T09:34:54;8.60;99.90
34147;DHT22;20423;49.448;9.056;2023-01-05T09:37:20;8.50;99.90
34147;DHT22;20423;49.448;9.056;2023-01-05T09:39:46;8.60;99.90
34147;DHT22;20423;49.448;9.056;2023-01-05T09:42:16;8.60;99.90
34147;DHT22;20423;49.448;9.056;2023-01-05T09:44:51;8.70;99.90
34147;DHT22;20423;49.448;9.056;2023-01-05T09:47:25;8.70;99.90
34147;DHT22;20423;49.448;9.056;2023-01-05T09:49:52;8.60;99.90
34147;DHT22;20423;49.448;9.056;2023-01-05T09:52:20;8.40;99.90
34147;DHT22;20423;49.448;9.056;2023-01-05T09:54:59;8.30;99.90
34147;DHT22;20423;49.448;9.056;2023-01-05T09:57:26;8.20;99.90
34147;DHT22;20423;49.448;9.056;2023-01-05T09:59:56;8.20;99.90
34147;DHT22;20423;49.448;9.056;2023-01-05T10:05:05;8.30;99.90
34147;DHT22;20423;49.448;9.056;2023-01-05T10:07:44;8.40;99.90
34147;DHT22;20423;49.448;9.056;2023-01-05T10:10:43;8.40;99.90
34147;DHT22;20423;49.448;9.056;2023-01-05T10:13:30;8.40;99.90
34147;DHT22;20423;49.448;9.056;2023-01-05T10:15:57;8.40;99.90
34147;DHT22;20423;49.448;9.056;2023-01-05T10:18:26;8.40;99.90
34147;DHT22;20423;49.448;9.056;2023-01-05T10:23:56;8.30;99.90
34147;DHT22;20423;49.448;9.056;2023-01-05T10:26:35;8.40;99.90
34147;DHT22;20423;49.448;9.056;2023-01-05T10:29:18;8.50;99.90
34147;DHT22;20423;49.448;9.056;2023-01-05T10:31:46;8.50;99.90
34147;DHT22;20423;49.448;9.056;2023-01-05T10:40:40;8.70;99.90
34147;DHT22;20423;49.448;9.056;2023-01-05T10:43:28;8.60;99.90
34147;DHT22;20423;49.448;9.056;2023-01-05T10:46:01;8.70;99.90
34147;DHT22;20423;49.448;9.056;2023-01-05T10:48:30;8.70;99.90
34147;DHT22;20423;49.448;9.056;2023-01-05T10:50:58;8.80;99.90
34147;DHT22;20423;49.448;9.056;2023-01-05T10:53:26;8.80;99.90
34147;DHT22;20423;49.448;9.056;2023-01-05T11:00:49;8.80;99.90
34147;DHT22;20423;49.448;9.056;2023-01-05T11:03:17;8.60;99.90
34147;DHT22;20423;49.448;9.056;2023-01-05T11:05:45;8.60;99.90
34147;DHT22;20423;49.448;9.056;2023-01-05T11:08:24;8.60;99.90
34147;DHT22;20423;49.448;9.056;2023-01-05T11:11:03;8.70;99.90
34147;DHT22;20423;49.448;9.056;2023-01-05T11:13:32;8.70;99.90
34147;DHT22;20423;49.448;9.056;2023-01-05T11:19:10;8.80;99.90
34147;DHT22;20423;49.448;9.056;2023-01-05T11:21:45;8.90;99.90
34147;DHT22;20423;49.448;9.056;2023-01-05T11:26:54;9.00;99.90
34147;DHT22;20423;49.448;9.056;2023-01-05T11:29:35;8.90;99.90
34147;DHT22;20423;49.448;9.056;2023-01-05T11:32:16;8.90;99.90
34147;DHT22;20423;49.448;9.056;2023-01-05T11:34:49;8.90;99.90
34147;DHT22;20423;49.448;9.056;2023-01-05T11:37:26;9.00;99.90
34147;DHT22;20423;49.448;9.056;2023-01-05T11:47:39;9.10;99.90
34147;DHT22;20423;49.448;9.056;2023-01-05T11:52:47;9.10;99.90
34147;DHT22;20423;49.448;9.056;2023-01-05T11:55:57;9.20;99.90
34147;DHT22;20423;49.448;9.056;2023-01-05T11:58:33;9.20;99.90
34147;DHT22;20423;49.448;9.056;2023-01-05T12:06:59;9.20;99.90
34147;DHT22;20423;49.448;9.056;2023-01-05T12:23:08;9.30;99.90
34147;DHT22;20423;49.448;9.056;2023-01-05T12:37:16;9.10;99.90
34147;DHT22;20423;49.448;9.056;2023-01-05T12:51:06;9.00;99.90
34147;DHT22;20423;49.448;9.056;2023-01-05T12:56:07;9.00;99.90
34147;DHT22;20423;49.448;9.056;2023-01-05T12:58:39;9.00;99.90
34147;DHT22;20423;49.448;9.056;2023-01-05T13:01:18;9.00;99.90
34147;DHT22;20423;49.448;9.056;2023-01-05T13:03:55;9.10;99.90
34147;DHT22;20423;49.448;9.056;2023-01-05T13:06:23;9.00;99.90
34147;DHT22;20423;49.448;9.056;2023-01-05T13:09:19;9.20;99.90
34147;DHT22;20423;49.448;9.056;2023-01-05T13:12:06;9.20;99.90
34147;DHT22;20423;49.448;9.056;2023-01-05T13:14:34;9.30;99.90
34147;DHT22;20423;49.448;9.056;2023-01-05T13:17:27;9.20;99.90
34147;DHT22;20423;49.448;9.056;2023-01-05T13:22:33;9.20;99.90
34147;DHT22;20423;49.448;9.056;2023-01-05T13:25:20;9.20;99.90
34147;DHT22;20423;49.448;9.056;2023-01-05T13:27:46;9.20;99.90
34147;DHT22;20423;49.448;9.056;2023-01-05T13:30:31;9.10;99.90
34147;DHT22;20423;49.448;9.056;2023-01-05T13:36:20;9.00;99.90
34147;DHT22;20423;49.448;9.056;2023-01-05T13:39:31;9.00;99.90
34147;DHT22;20423;49.448;9.056;2023-01-05T13:51:16;8.90;99.90
34147;DHT22;20423;49.448;9.056;2023-01-05T13:53:50;8.90;99.90
34147;DHT22;20423;49.448;9.056;2023-01-05T13:56:24;8.90;99.90
34147;DHT22;20423;49.448;9.056;2023-01-05T13:58:59;8.90;99.90
34147;DHT22;20423;49.448;9.056;2023-01-05T14:01:41;8.90;99.90
34147;DHT22;20423;49.448;9.056;2023-01-05T14:04:22;8.90;99.90
34147;DHT22;20423;49.448;9.056;2023-01-05T14:06:52;8.90;99.90
34147;DHT22;20423;49.448;9.056;2023-01-05T14:09:38;8.80;99.90
34147;DHT22;20423;49.448;9.056;2023-01-05T14:22:57;8.60;99.90
34147;DHT22;20423;49.448;9.056;2023-01-05T14:28:53;8.40;99.90
34147;DHT22;20423;49.448;9.056;2023-01-05T14:31:35;8.40;99.90
34147;DHT22;20423;49.448;9.056;2023-01-05T14:34:10;8.40;99.90
34147;DHT22;20423;49.448;9.056;2023-01-05T14:36:42;8.30;99.90
34147;DHT22;20423;49.448;9.056;2023-01-05T14:45:34;8.20;99.90
34147;DHT22;20423;49.448;9.056;2023-01-05T14:48:07;8.10;99.90
34147;DHT22;20423;49.448;9.056;2023-01-05T14:51:07;8.20;99.90
34147;DHT22;20423;49.448;9.056;2023-01-05T14:53:40;8.20;99.90
34147;DHT22;20423;49.448;9.056;2023-01-05T15:03:57;8.20;99.90
34147;DHT22;20423;49.448;9.056;2023-01-05T15:06:41;8.20;99.90
34147;DHT22;20423;49.448;9.056;2023-01-05T15:20:25;8.20;99.90
34147;DHT22;20423;49.448;9.056;2023-01-05T15:28:42;8.20;99.90
34147;DHT22;20423;49.448;9.056;2023-01-05T15:31:32;8.20;99.90
34147;DHT22;20423;49.448;9.056;2023-01-05T15:34:17;8.20;99.90
34147;DHT22;20423;49.448;9.056;2023-01-05T15:39:24;8.20;99.90
34147;DHT22;20423;49.448;9.056;2023-01-05T15:41:52;8.20;99.90
34147;DHT22;20423;49.448;9.056;2023-01-05T15:44:20;8.10;99.90
34147;DHT22;20423;49.448;9.056;2023-01-05T15:46:47;8.20;99.90
34147;DHT22;20423;49.448;9.056;2023-01-05T15:49:22;8.20;99.90
34147;DHT22;20423;49.448;9.056;2023-01-05T15:51:51;8.20;99.90
34147;DHT22;20423;49.448;9.056;2023-01-05T15:54:29;8.20;99.90
34147;DHT22;20423;49.448;9.056;2023-01-05T15:56:57;8.20;99.90
34147;DHT22;20423;49.448;9.056;2023-01-05T16:01:52;8.20;99.90
34147;DHT22;20423;49.448;9.056;2023-01-05T16:04:18;8.20;99.90
34147;DHT22;20423;49.448;9.056;2023-01-05T16:06:50;8.20;99.90
34147;DHT22;20423;49.448;9.056;2023-01-05T16:09:32;8.10;99.90
34147;DHT22;20423;49.448;9.056;2023-01-05T16:14:40;8.10;99.90
34147;DHT22;20423;49.448;9.056;2023-01-05T16:17:12;8.10;99.90
34147;DHT22;20423;49.448;9.056;2023-01-05T16:24:43;8.10;99.90
34147;DHT22;20423;49.448;9.056;2023-01-05T16:27:11;8.10;99.90
34147;DHT22;20423;49.448;9.056;2023-01-05T16:29:40;8.10;99.90
34147;DHT22;20423;49.448;9.056;2023-01-05T16:32:36;8.10;99.90
34147;DHT22;20423;49.448;9.056;2023-01-05T16:45:48;7.90;99.90
34147;DHT22;20423;49.448;9.056;2023-01-05T16:51:16;7.90;99.90
34147;DHT22;20423;49.448;9.056;2023-01-05T16:53:54;7.80;99.90
34147;DHT22;20423;49.448;9.056;2023-01-05T16:57:00;7.70;99.90
34147;DHT22;20423;49.448;9.056;2023-01-05T17:04:59;7.70;99.90
34147;DHT22;20423;49.448;9.056;2023-01-05T17:07:25;7.70;99.90
34147;DHT22;20423;49.448;9.056;2023-01-05T17:09:51;7.70;99.90
34147;DHT22;20423;49.448;9.056;2023-01-05T17:12:16;7.80;99.90
34147;DHT22;20423;49.448;9.056;2023-01-05T17:14:42;7.80;99.90
34147;DHT22;20423;49.448;9.056;2023-01-05T17:20:52;7.70;99.90
34147;DHT22;20423;49.448;9.056;2023-01-05T17:23:23;7.70;99.90
34147;DHT22;20423;49.448;9.056;2023-01-05T17:25:50;7.70;99.90
34147;DHT22;20423;49.448;9.056;2023-01-05T17:28:16;7.80;99.90
34147;DHT22;20423;49.448;9.056;2023-01-05T17:30:42;7.80;99.90
34147;DHT22;20423;49.448;9.056;2023-01-05T17:33:08;7.80;99.90
34147;DHT22;20423;49.448;9.056;2023-01-05T17:35:34;7.80;99.90
34147;DHT22;20423;49.448;9.056;2023-01-05T17:38:00;7.80;99.90
34147;DHT22;20423;49.448;9.056;2023-01-05T17:40:26;7.70;99.90
34147;DHT22;20423;49.448;9.056;2023-01-05T17:42:53;7.60;99.90
34147;DHT22;20423;49.448;9.056;2023-01-05T17:45:21;7.50;99.90
34147;DHT22;20423;49.448;9.056;2023-01-05T17:47:48;7.50;99.90
34147;DHT22;20423;49.448;9.056;2023-01-05T17:50:17;7.50;99.90
34147;DHT22;20423;49.448;9.056;2023-01-05T17:52:43;7.40;99.90
34147;DHT22;20423;49.448;9.056;2023-01-05T17:55:10;7.40;99.90
34147;DHT22;20423;49.448;9.056;2023-01-05T17:57:37;7.30;99.90
34147;DHT22;20423;49.448;9.056;2023-01-05T18:00:07;7.40;99.90
34147;DHT22;20423;49.448;9.056;2023-01-05T18:02:36;7.40;99.90
34147;DHT22;20423;49.448;9.056;2023-01-05T18:05:02;7.40;99.90
34147;DHT22;20423;49.448;9.056;2023-01-05T18:07:29;7.40;99.90
34147;DHT22;20423;49.448;9.056;2023-01-05T18:09:56;7.40;99.90
34147;DHT22;20423;49.448;9.056;2023-01-05T18:12:23;7.30;99.90
34147;DHT22;20423;49.448;9.056;2023-01-05T18:14:52;7.30;99.90
34147;DHT22;20423;49.448;9.056;2023-01-05T18:17:18;7.20;99.90
34147;DHT22;20423;49.448;9.056;2023-01-05T18:19:44;7.20;99.90
34147;DHT22;20423;49.448;9.056;2023-01-05T18:22:10;7.10;99.90
34147;DHT22;20423;49.448;9.056;2023-01-05T18:24:38;7.10;99.90
34147;DHT22;20423;49.448;9.056;2023-01-05T18:27:04;7.10;99.90
34147;DHT22;20423;49.448;9.056;2023-01-05T18:29:35;7.20;99.90
34147;DHT22;20423;49.448;9.056;2023-01-05T18:32:03;7.20;99.90
34147;DHT22;20423;49.448;9.056;2023-01-05T18:34:29;7.30;99.90
34147;DHT22;20423;49.448;9.056;2023-01-05T18:36:55;7.30;99.90
34147;DHT22;20423;49.448;9.056;2023-01-05T18:39:22;7.30;99.90
34147;DHT22;20423;49.448;9.056;2023-01-05T18:41:48;7.30;99.90
34147;DHT22;20423;49.448;9.056;2023-01-05T18:44:14;7.40;99.90
34147;DHT22;20423;49.448;9.056;2023-01-05T18:46:39;7.20;99.90
34147;DHT22;20423;49.448;9.056;2023-01-05T18:49:05;7.20;99.90
34147;DHT22;20423;49.448;9.056;2023-01-05T18:51:31;7.20;99.90
34147;DHT22;20423;49.448;9.056;2023-01-05T18:53:57;7.20;99.90
34147;DHT22;20423;49.448;9.056;2023-01-05T18:56:23;7.20;99.90
34147;DHT22;20423;49.448;9.056;2023-01-05T18:58:51;7.10;99.90
34147;DHT22;20423;49.448;9.056;2023-01-05T19:01:18;7.20;99.90
34147;DHT22;20423;49.448;9.056;2023-01-05T19:03:44;7.20;99.90
34147;DHT22;20423;49.448;9.056;2023-01-05T19:06:16;7.30;99.90
34147;DHT22;20423;49.448;9.056;2023-01-05T19:08:42;7.30;99.90
34147;DHT22;20423;49.448;9.056;2023-01-05T19:11:19;7.30;99.90
34147;DHT22;20423;49.448;9.056;2023-01-05T19:13:45;7.20;99.90
34147;DHT22;20423;49.448;9.056;2023-01-05T19:16:13;7.20;99.90
34147;DHT22;20423;49.448;9.056;2023-01-05T19:18:45;7.30;99.90
34147;DHT22;20423;49.448;9.056;2023-01-05T19:21:12;7.20;99.90
34147;DHT22;20423;49.448;9.056;2023-01-05T19:23:38;7.20;99.90
34147;DHT22;20423;49.448;9.056;2023-01-05T19:26:05;7.20;99.90
34147;DHT22;20423;49.448;9.056;2023-01-05T19:28:34;7.20;99.90
34147;DHT22;20423;49.448;9.056;2023-01-05T19:31:09;7.20;99.90
34147;DHT22;20423;49.448;9.056;2023-01-05T19:33:36;7.20;99.90
34147;DHT22;20423;49.448;9.056;2023-01-05T19:36:07;7.20;99.90
34147;DHT22;20423;49.448;9.056;2023-01-05T19:38:34;7.10;99.90
34147;DHT22;20423;49.448;9.056;2023-01-05T19:41:13;7.20;99.90
34147;DHT22;20423;49.448;9.056;2023-01-05T19:43:39;7.20;99.90
34147;DHT22;20423;49.448;9.056;2023-01-05T19:46:10;7.20;99.90
34147;DHT22;20423;49.448;9.056;2023-01-05T19:48:37;7.20;99.90
34147;DHT22;20423;49.448;9.056;2023-01-05T19:51:06;7.10;99.90
34147;DHT22;20423;49.448;9.056;2023-01-05T19:53:33;7.20;99.90
34147;DHT22;20423;49.448;9.056;2023-01-05T19:58:29;7.20;99.90
34147;DHT22;20423;49.448;9.056;2023-01-05T20:00:55;7.20;99.90
34147;DHT22;20423;49.448;9.056;2023-01-05T20:03:22;7.20;99.90
34147;DHT22;20423;49.448;9.056;2023-01-05T20:05:48;7.30;99.90